createdAt,value
2018-08-16T00:01:47.805Z,5.70
2018-08-16T00:04:16.505Z,7.40
2018-08-16T00:06:45.171Z,6.20
2018-08-16T00:09:13.771Z,6.10
2018-08-16T00:11:42.444Z,6.67
2018-08-16T00:14:11.184Z,6.03
2018-08-16T00:16:40.046Z,6.03
2018-08-16T00:19:08.693Z,5.97
2018-08-16T00:21:37.334Z,5.90
2018-08-16T00:24:06.295Z,6.70
2018-08-16T00:26:34.916Z,6.10
2018-08-16T00:29:03.522Z,7.07
2018-08-16T00:31:32.657Z,6.47
2018-08-16T00:34:01.439Z,6.57
2018-08-16T00:36:30.199Z,6.43
2018-08-16T00:38:58.815Z,6.80
2018-08-16T00:41:27.485Z,6.10
2018-08-16T00:43:56.289Z,7.23
2018-08-16T00:46:24.946Z,6.87
2018-08-16T00:48:53.965Z,6.83
2018-08-16T00:51:22.596Z,5.43
2018-08-16T00:53:51.798Z,6.30
2018-08-16T00:56:20.417Z,7.37
2018-08-16T00:58:49.047Z,6.17
2018-08-16T01:01:17.578Z,5.93
2018-08-16T01:03:46.193Z,6.07
2018-08-16T01:06:14.885Z,6.17
2018-08-16T01:08:43.550Z,7.50
2018-08-16T01:11:12.124Z,6.40
2018-08-16T01:13:40.816Z,6.20
2018-08-16T01:16:09.470Z,7.53
2018-08-16T01:18:38.074Z,5.70
2018-08-16T01:21:06.835Z,5.17
2018-08-16T01:23:35.456Z,6.87
2018-08-16T01:26:04.011Z,5.97
2018-08-16T01:28:32.670Z,6.30
2018-08-16T01:31:01.305Z,6.43
2018-08-16T01:33:30.049Z,5.67
2018-08-16T01:35:58.679Z,6.90
2018-08-16T01:38:27.737Z,7.03
2018-08-16T01:40:56.509Z,6.53
2018-08-16T01:43:25.848Z,6.17
2018-08-16T01:45:54.434Z,6.93
2018-08-16T01:48:22.977Z,6.63
2018-08-16T01:50:51.597Z,6.43
2018-08-16T01:53:20.185Z,6.23
2018-08-16T01:55:48.825Z,7.33
2018-08-16T01:58:17.422Z,7.40
2018-08-16T02:00:46.023Z,6.50
2018-08-16T02:03:14.612Z,6.67
2018-08-16T02:05:43.805Z,6.40
2018-08-16T02:08:12.373Z,7.37
2018-08-16T02:10:40.946Z,6.30
2018-08-16T02:13:10.029Z,6.23
2018-08-16T02:15:38.605Z,6.23
2018-08-16T02:18:07.785Z,5.47
2018-08-16T02:20:36.485Z,6.63
2018-08-16T02:23:05.065Z,5.00
2018-08-16T02:25:33.635Z,6.00
2018-08-16T02:28:02.225Z,6.40
2018-08-16T02:30:30.809Z,6.37
2018-08-16T02:32:59.322Z,5.30
2018-08-16T02:35:27.890Z,6.70
2018-08-16T02:37:56.433Z,5.63
2018-08-16T02:40:24.977Z,6.93
2018-08-16T02:42:53.730Z,6.03
2018-08-16T02:45:22.309Z,5.73
2018-08-16T02:47:51.517Z,6.23
2018-08-16T02:50:20.128Z,5.30
2018-08-16T02:52:48.785Z,7.60
2018-08-16T02:55:17.375Z,5.60
2018-08-16T02:57:46.046Z,5.40
2018-08-16T03:00:15.659Z,5.33
2018-08-16T03:02:44.176Z,5.90
2018-08-16T03:05:12.813Z,5.83
2018-08-16T03:07:41.360Z,5.00
2018-08-16T03:10:10.025Z,4.97
2018-08-16T03:12:38.688Z,5.03
2018-08-16T03:15:08.586Z,6.30
2018-08-16T03:17:37.398Z,4.80
2018-08-16T03:20:06.478Z,4.60
2018-08-16T03:22:35.020Z,5.10
2018-08-16T03:25:03.594Z,7.43
2018-08-16T03:27:32.171Z,5.63
2018-08-16T03:30:00.702Z,4.90
2018-08-16T03:32:29.262Z,4.63
2018-08-16T03:34:57.876Z,5.20
2018-08-16T03:37:26.443Z,5.13
2018-08-16T03:39:55.534Z,5.30
2018-08-16T03:42:24.257Z,5.50
2018-08-16T03:44:52.857Z,6.53
2018-08-16T03:47:21.560Z,4.93
2018-08-16T03:49:50.413Z,6.70
2018-08-16T03:52:19.541Z,5.60
2018-08-16T03:54:48.437Z,8.57
2018-08-16T03:57:17.416Z,6.37
2018-08-16T03:59:46.330Z,5.73
2018-08-16T04:02:15.343Z,5.70
2018-08-16T04:04:44.410Z,5.77
2018-08-16T04:07:13.187Z,7.03
2018-08-16T04:09:42.706Z,5.17
2018-08-16T04:12:11.761Z,5.53
2018-08-16T04:14:40.920Z,8.97
2018-08-16T04:17:10.037Z,5.43
2018-08-16T04:19:39.316Z,6.17
2018-08-16T04:22:08.512Z,6.37
2018-08-16T04:24:38.590Z,6.00
2018-08-16T04:27:08.855Z,5.60
2018-08-16T04:29:38.053Z,6.20
2018-08-16T04:32:07.289Z,9.00
2018-08-16T04:34:36.497Z,4.60
2018-08-16T04:37:05.639Z,8.10
2018-08-16T04:39:34.638Z,6.47
2018-08-16T04:42:04.986Z,6.10
2018-08-16T04:44:34.072Z,7.70
2018-08-16T04:47:03.185Z,4.67
2018-08-16T04:49:32.067Z,8.57
2018-08-16T04:52:01.038Z,6.90
2018-08-16T04:54:34.904Z,4.80
2018-08-16T04:57:04.461Z,8.37
2018-08-16T04:59:33.718Z,6.03
2018-08-16T05:02:02.616Z,12.07
2018-08-16T05:04:31.790Z,7.00
2018-08-16T05:07:01.210Z,7.37
2018-08-16T05:09:30.338Z,4.90
2018-08-16T05:11:59.609Z,10.03
2018-08-16T05:14:40.664Z,5.00
2018-08-16T05:17:11.132Z,4.83
2018-08-16T05:19:40.133Z,7.13
2018-08-16T05:22:09.435Z,6.20
2018-08-16T05:24:38.611Z,7.23
2018-08-16T05:27:07.830Z,5.77
2018-08-16T05:29:36.776Z,8.23
2018-08-16T05:32:06.026Z,9.77
2018-08-16T05:34:35.299Z,7.23
2018-08-16T05:37:04.662Z,6.77
2018-08-16T05:39:34.740Z,8.23
2018-08-16T05:42:03.539Z,6.63
2018-08-16T05:44:33.346Z,7.87
2018-08-16T05:47:02.668Z,6.50
2018-08-16T05:49:31.731Z,6.67
2018-08-16T05:52:00.665Z,6.50
2018-08-16T05:54:29.763Z,5.90
2018-08-16T05:56:59.477Z,7.33
2018-08-16T05:59:28.450Z,5.93
2018-08-16T06:01:57.480Z,6.63
2018-08-16T06:04:26.276Z,5.73
2018-08-16T06:06:54.974Z,4.53
2018-08-16T06:09:24.891Z,5.67
2018-08-16T06:11:53.590Z,8.10
2018-08-16T06:14:22.961Z,5.67
2018-08-16T06:16:51.700Z,8.27
2018-08-16T06:19:20.684Z,5.97
2018-08-16T06:21:49.465Z,4.87
2018-08-16T06:24:18.506Z,4.37
2018-08-16T06:26:48.231Z,6.30
2018-08-16T06:29:17.307Z,3.87
2018-08-16T06:31:46.408Z,5.93
2018-08-16T06:34:15.389Z,5.17
2018-08-16T06:36:44.653Z,5.10
2018-08-16T06:39:14.396Z,3.63
2018-08-16T06:41:43.082Z,4.40
2018-08-16T06:44:14.065Z,4.60
2018-08-16T06:46:42.750Z,4.73
2018-08-16T06:49:11.414Z,3.80
2018-08-16T06:51:40.132Z,4.10
2018-08-16T06:54:08.969Z,5.43
2018-08-16T06:56:37.786Z,7.33
2018-08-16T06:59:06.681Z,3.90
2018-08-16T07:01:35.382Z,4.30
2018-08-16T07:04:04.227Z,3.70
2018-08-16T07:06:32.896Z,4.37
2018-08-16T07:09:01.671Z,5.13
2018-08-16T07:11:30.645Z,8.03
2018-08-16T07:13:59.431Z,6.77
2018-08-16T07:16:28.170Z,3.70
2018-08-16T07:18:56.848Z,3.50
2018-08-16T07:21:25.616Z,5.57
2018-08-16T07:23:54.267Z,5.83
2018-08-16T07:26:23.098Z,4.47
2018-08-16T07:28:51.805Z,11.77
2018-08-16T07:31:20.439Z,3.03
2018-08-16T07:33:49.014Z,2.70
2018-08-16T07:36:17.704Z,3.03
2018-08-16T07:38:46.358Z,3.53
2018-08-16T07:41:15.405Z,4.83
2018-08-16T07:43:44.133Z,3.33
2018-08-16T07:46:12.862Z,2.90
2018-08-16T07:48:41.583Z,2.60
2018-08-16T07:51:10.389Z,3.90
2018-08-16T07:53:39.145Z,2.23
2018-08-16T07:56:07.980Z,2.17
2018-08-16T07:58:36.795Z,2.57
2018-08-16T08:01:05.773Z,4.53
2018-08-16T08:03:34.764Z,2.50
2018-08-16T08:06:03.596Z,8.80
2018-08-16T08:08:32.273Z,2.20
2018-08-16T08:11:01.141Z,3.33
2018-08-16T08:13:30.096Z,3.87
2018-08-16T08:15:59.523Z,5.93
2018-08-16T08:18:28.497Z,2.27
2018-08-16T08:20:57.123Z,9.37
2018-08-16T08:23:26.365Z,4.23
2018-08-16T08:25:55.095Z,3.10
2018-08-16T08:28:24.140Z,3.93
2018-08-16T08:30:52.822Z,4.47
2018-08-16T08:33:21.529Z,2.60
2018-08-16T08:37:00.112Z,3.73
2018-08-16T08:39:28.856Z,2.70
2018-08-16T08:41:57.629Z,2.33
2018-08-16T08:44:27.775Z,5.33
2018-08-16T08:46:56.704Z,2.50
2018-08-16T08:49:25.486Z,3.72
2018-08-16T08:51:58.478Z,2.30
2018-08-16T08:54:46.616Z,5.03
2018-08-16T08:57:30.482Z,2.62
2018-08-16T09:00:03.736Z,2.10
2018-08-16T09:02:39.538Z,2.98
2018-08-16T09:05:11.512Z,2.65
2018-08-16T09:07:42.631Z,3.62
2018-08-16T09:11:21.026Z,1.98
2018-08-16T09:15:02.324Z,2.62
2018-08-16T09:17:31.401Z,2.83
2018-08-16T09:20:00.192Z,2.62
2018-08-16T09:22:29.844Z,2.83
2018-08-16T09:24:58.672Z,2.02
2018-08-16T09:27:27.673Z,2.75
2018-08-16T09:30:18.036Z,2.42
2018-08-16T09:32:58.206Z,1.75
2018-08-16T09:35:27.801Z,3.72
2018-08-16T09:37:57.262Z,3.05
2018-08-16T09:40:26.627Z,2.47
2018-08-16T09:42:55.584Z,1.92
2018-08-16T09:45:35.610Z,4.90
2018-08-16T09:48:15.840Z,3.00
2018-08-16T09:50:45.001Z,2.00
2018-08-16T09:53:13.628Z,1.80
2018-08-16T09:55:42.165Z,1.97
2018-08-16T09:58:11.071Z,1.40
2018-08-16T10:00:45.548Z,1.97
2018-08-16T10:03:14.240Z,1.50
2018-08-16T10:05:42.810Z,1.73
2018-08-16T10:08:11.479Z,2.13
2018-08-16T10:10:40.074Z,2.00
2018-08-16T10:13:08.632Z,2.53
2018-08-16T10:15:37.246Z,2.00
2018-08-16T10:18:06.235Z,1.73
2018-08-16T10:20:34.818Z,1.70
2018-08-16T10:23:03.442Z,2.35
2018-08-16T10:25:32.021Z,1.47
2018-08-16T10:28:00.604Z,1.60
2018-08-16T10:30:29.249Z,1.63
2018-08-16T10:32:57.818Z,1.70
2018-08-16T10:35:26.378Z,2.13
2018-08-16T10:37:55.312Z,1.87
2018-08-16T10:40:23.874Z,1.53
2018-08-16T10:42:52.778Z,1.50
2018-08-16T10:45:21.381Z,1.90
2018-08-16T10:47:49.963Z,2.50
2018-08-16T10:50:22.386Z,2.13
2018-08-16T10:52:51.253Z,5.07
2018-08-16T10:55:19.824Z,2.20
2018-08-16T10:57:48.515Z,2.70
2018-08-16T11:00:17.067Z,2.77
2018-08-16T11:02:45.790Z,1.90
2018-08-16T11:05:14.502Z,2.27
2018-08-16T11:07:43.354Z,3.23
2018-08-16T11:10:12.240Z,3.47
2018-08-16T11:12:45.958Z,2.83
2018-08-16T11:15:15.858Z,1.70
2018-08-16T11:17:44.574Z,2.30
2018-08-16T11:20:13.247Z,4.23
2018-08-16T11:22:42.209Z,2.00
2018-08-16T11:25:10.949Z,1.90
2018-08-16T11:27:40.016Z,4.43
2018-08-16T11:30:08.581Z,1.50
2018-08-16T11:32:38.456Z,2.33
2018-08-16T11:35:09.047Z,2.30
2018-08-16T11:37:38.980Z,1.90
2018-08-16T11:40:08.580Z,2.13
2018-08-16T11:42:38.730Z,3.53
2018-08-16T11:45:08.305Z,1.93
2018-08-16T11:47:38.165Z,1.90
2018-08-16T11:50:08.154Z,2.00
2018-08-16T11:52:38.491Z,2.90
2018-08-16T11:55:07.674Z,1.70
2018-08-16T11:57:38.137Z,1.70
2018-08-16T12:00:11.216Z,3.03
2018-08-16T12:02:40.095Z,1.80
2018-08-16T12:05:10.179Z,1.80
2018-08-16T12:07:40.129Z,3.93
2018-08-16T12:10:11.032Z,1.83
2018-08-16T12:12:39.716Z,1.80
2018-08-16T12:15:09.009Z,2.40
2018-08-16T12:17:37.760Z,2.27
2018-08-16T12:20:07.454Z,2.00
2018-08-16T12:22:35.976Z,2.60
2018-08-16T12:25:05.340Z,1.80
2018-08-16T12:27:33.921Z,2.33
2018-08-16T12:30:03.126Z,1.97
2018-08-16T12:32:32.189Z,1.80
2018-08-16T12:35:00.845Z,1.63
2018-08-16T12:37:29.328Z,2.60
2018-08-16T12:39:58.041Z,2.17
2018-08-16T12:42:26.660Z,1.70
2018-08-16T12:44:55.225Z,2.13
2018-08-16T12:47:23.914Z,3.23
2018-08-16T12:49:52.526Z,2.70
2018-08-16T12:52:21.248Z,1.82
2018-08-16T12:54:50.150Z,1.83
2018-08-16T12:57:18.689Z,2.15
2018-08-16T12:59:47.267Z,1.70
2018-08-16T13:02:15.894Z,1.70
2018-08-16T13:04:44.608Z,2.22
2018-08-16T13:07:13.138Z,1.98
2018-08-16T13:09:41.867Z,1.53
2018-08-16T13:12:10.488Z,2.00
2018-08-16T13:14:39.810Z,1.70
2018-08-16T13:17:09.012Z,3.07
2018-08-16T13:19:38.232Z,10.03
2018-08-16T13:22:06.968Z,1.60
2018-08-16T13:24:36.301Z,3.43
2018-08-16T13:27:05.173Z,6.57
2018-08-16T13:29:34.479Z,1.70
2018-08-16T13:32:03.085Z,2.27
2018-08-16T13:34:31.668Z,1.93
2018-08-16T13:37:00.354Z,2.10
2018-08-16T13:39:28.845Z,2.90
2018-08-16T13:41:58.392Z,2.12
2018-08-16T13:44:26.960Z,2.13
2018-08-16T13:46:55.538Z,1.87
2018-08-16T13:49:24.078Z,1.73
2018-08-16T13:51:52.803Z,1.53
2018-08-16T13:54:22.305Z,2.17
2018-08-16T13:56:50.994Z,2.30
2018-08-16T13:59:19.646Z,1.90
2018-08-16T14:01:48.405Z,2.13
2018-08-16T14:04:17.481Z,1.90
2018-08-16T14:06:46.201Z,2.00
2018-08-16T14:09:14.774Z,2.23
2018-08-16T14:11:43.337Z,2.80
2018-08-16T14:14:11.953Z,2.00
2018-08-16T14:16:40.494Z,3.40
2018-08-16T14:19:09.076Z,3.17
2018-08-16T14:21:37.622Z,2.03
2018-08-16T14:24:06.574Z,1.70
2018-08-16T14:26:35.141Z,2.37
2018-08-16T14:29:03.864Z,1.80
2018-08-16T14:31:32.461Z,2.40
2018-08-16T14:34:01.100Z,3.20
2018-08-16T14:36:29.658Z,3.27
2018-08-16T14:38:58.253Z,2.00
2018-08-16T14:41:26.848Z,2.13
2018-08-16T14:43:55.398Z,1.80
2018-08-16T14:46:23.946Z,3.60
2018-08-16T14:48:52.808Z,2.70
2018-08-16T14:51:21.391Z,3.27
2018-08-16T14:53:49.905Z,2.30
2018-08-16T14:56:18.560Z,4.43
2018-08-16T14:58:47.107Z,1.80
2018-08-16T15:01:15.677Z,2.80
2018-08-16T15:03:44.432Z,2.63
2018-08-16T15:06:13.118Z,2.40
2018-08-16T15:08:42.004Z,1.87
2018-08-16T15:11:10.778Z,3.73
2018-08-16T15:13:39.709Z,2.23
2018-08-16T15:16:10.025Z,2.47
2018-08-16T15:18:38.622Z,2.23
2018-08-16T15:21:07.244Z,1.83
2018-08-16T15:23:36.000Z,1.80
2018-08-16T15:26:04.709Z,3.33
2018-08-16T15:28:33.497Z,2.50
2018-08-16T15:31:02.106Z,2.20
2018-08-16T15:33:30.725Z,2.07
2018-08-16T15:36:00.190Z,1.67
2018-08-16T15:38:28.831Z,1.70
2018-08-16T15:40:57.712Z,2.30
2018-08-16T15:43:26.449Z,3.93
2018-08-16T15:45:55.128Z,3.90
2018-08-16T15:48:23.808Z,2.07
2018-08-16T15:50:52.562Z,2.93
2018-08-16T15:53:21.224Z,2.37
2018-08-16T15:55:50.009Z,1.90
2018-08-16T15:58:18.767Z,4.70
2018-08-16T16:00:47.396Z,1.77
2018-08-16T16:03:16.170Z,1.73
2018-08-16T16:05:45.030Z,4.17
2018-08-16T16:08:13.805Z,2.33
2018-08-16T16:10:42.533Z,2.00
2018-08-16T16:13:11.134Z,2.67
2018-08-16T16:15:40.449Z,3.93
2018-08-16T16:18:09.420Z,2.20
2018-08-16T16:20:38.073Z,2.23
2018-08-16T16:23:07.672Z,3.20
2018-08-16T16:25:38.765Z,3.10
2018-08-16T16:28:07.470Z,2.03
2018-08-16T16:30:36.695Z,4.63
2018-08-16T16:33:05.498Z,3.30
2018-08-16T16:35:34.161Z,2.50
2018-08-16T16:38:03.543Z,2.40
2018-08-16T16:40:32.168Z,2.40
2018-08-16T16:43:00.820Z,2.40
2018-08-16T16:45:29.533Z,2.00
2018-08-16T16:47:58.300Z,1.90
2018-08-16T16:50:27.113Z,1.80
2018-08-16T16:52:55.824Z,2.30
2018-08-16T16:55:24.571Z,3.10
2018-08-16T16:57:53.186Z,2.87
2018-08-16T17:00:22.005Z,1.97
2018-08-16T17:02:50.713Z,3.30
2018-08-16T17:05:19.479Z,2.70
2018-08-16T17:07:48.166Z,2.57
2018-08-16T17:10:16.851Z,2.20
2018-08-16T17:12:45.960Z,3.73
2018-08-16T17:15:26.198Z,1.93
2018-08-16T17:17:55.636Z,3.03
2018-08-16T17:20:24.741Z,1.90
2018-08-16T17:22:53.754Z,2.80
2018-08-16T17:25:22.705Z,2.70
2018-08-16T17:27:51.945Z,3.10
2018-08-16T17:30:21.142Z,2.10
2018-08-16T17:32:50.301Z,1.87
2018-08-16T17:35:19.344Z,2.53
2018-08-16T17:37:49.138Z,2.03
2018-08-16T17:40:18.344Z,2.80
2018-08-16T17:42:47.373Z,2.87
2018-08-16T17:45:16.474Z,2.80
2018-08-16T17:47:45.455Z,2.87
2018-08-16T17:50:14.715Z,2.40
2018-08-16T17:52:43.648Z,3.73
2018-08-16T17:55:12.687Z,2.47
2018-08-16T17:57:41.658Z,2.83
2018-08-16T18:00:12.096Z,3.00
2018-08-16T18:02:41.745Z,2.50
2018-08-16T18:05:10.936Z,6.40
2018-08-16T18:07:39.897Z,2.90
2018-08-16T18:10:09.680Z,4.03
2018-08-16T18:12:38.838Z,2.80
2018-08-16T18:15:09.810Z,2.80
2018-08-16T18:17:38.941Z,2.80
2018-08-16T18:20:08.126Z,2.23
2018-08-16T18:22:38.087Z,3.43
2018-08-16T18:25:07.826Z,4.30
2018-08-16T18:27:38.320Z,4.57
2018-08-16T18:30:08.732Z,3.00
2018-08-16T18:32:38.050Z,3.33
2018-08-16T18:35:07.275Z,3.07
2018-08-16T18:37:36.205Z,3.17
2018-08-16T18:40:06.055Z,2.53
2018-08-16T18:42:34.812Z,2.80
2018-08-16T18:45:03.689Z,3.07
2018-08-16T18:47:32.337Z,2.57
2018-08-16T18:50:00.917Z,2.60
2018-08-16T18:52:29.865Z,2.53
2018-08-16T18:54:58.523Z,2.70
2018-08-16T18:57:27.252Z,2.97
2018-08-16T18:59:55.812Z,4.33
2018-08-16T19:02:24.434Z,3.57
2018-08-16T19:04:52.995Z,3.40
2018-08-16T19:07:21.558Z,4.20
2018-08-16T19:09:50.133Z,3.10
2018-08-16T19:12:18.746Z,3.13
2018-08-16T19:14:47.302Z,15.80
2018-08-16T19:17:15.857Z,11.67
2018-08-16T19:19:44.422Z,4.50
2018-08-16T19:22:12.955Z,7.40
2018-08-16T19:24:41.805Z,3.20
2018-08-16T19:27:10.334Z,5.37
2018-08-16T19:29:38.901Z,3.53
2018-08-16T19:32:08.277Z,4.80
2018-08-16T19:34:36.822Z,4.57
2018-08-16T19:37:05.674Z,6.30
2018-08-16T19:39:34.335Z,6.97
2018-08-16T19:42:02.893Z,7.43
2018-08-16T19:44:31.653Z,8.17
2018-08-16T19:47:00.266Z,5.13
2018-08-16T19:49:29.563Z,5.10
2018-08-16T19:51:58.161Z,5.03
2018-08-16T19:54:27.272Z,5.50
2018-08-16T19:56:56.221Z,5.80
2018-08-16T19:59:25.816Z,6.63
2018-08-16T20:01:56.363Z,6.03
2018-08-16T20:04:26.193Z,5.83
2018-08-16T20:06:55.633Z,6.40
2018-08-16T20:09:31.530Z,4.83
2018-08-16T20:12:04.742Z,5.53
2018-08-16T20:14:43.174Z,5.50
2018-08-16T20:17:13.775Z,4.50
2018-08-16T20:19:44.309Z,4.63
2018-08-16T20:22:18.146Z,6.80
2018-08-16T20:24:52.568Z,6.53
2018-08-16T20:27:23.037Z,6.10
2018-08-16T20:29:55.403Z,7.43
2018-08-16T20:32:25.157Z,7.40
2018-08-16T20:34:56.097Z,7.73
2018-08-16T20:37:24.729Z,6.27
2018-08-16T20:39:53.298Z,6.47
2018-08-16T20:42:21.907Z,9.43
2018-08-16T20:44:50.725Z,13.00
2018-08-16T20:47:19.280Z,6.37
2018-08-16T20:49:48.988Z,5.53
2018-08-16T20:52:18.022Z,4.27
2018-08-16T20:54:46.804Z,4.87
2018-08-16T20:57:15.618Z,4.50
2018-08-16T20:59:44.457Z,4.60
2018-08-16T21:02:13.096Z,4.83
2018-08-16T21:04:41.658Z,4.63
2018-08-16T21:07:10.946Z,4.90
2018-08-16T21:09:39.565Z,9.97
2018-08-16T21:12:08.100Z,6.53
2018-08-16T21:14:36.921Z,4.37
2018-08-16T21:17:06.681Z,5.00
2018-08-16T21:19:35.276Z,5.27
2018-08-16T21:22:04.249Z,6.40
2018-08-16T21:24:34.237Z,5.27
2018-08-16T21:27:04.114Z,4.30
2018-08-16T21:29:34.250Z,5.07
2018-08-16T21:32:04.666Z,5.40
2018-08-16T21:34:35.550Z,4.70
2018-08-16T21:37:05.705Z,4.70
2018-08-16T21:39:35.808Z,8.37
2018-08-16T21:42:06.785Z,7.33
2018-08-16T21:44:36.953Z,5.67
2018-08-16T21:47:10.068Z,5.90
2018-08-16T21:49:44.844Z,5.03
2018-08-16T21:52:19.643Z,6.13
2018-08-16T21:54:53.318Z,5.30
2018-08-16T21:57:27.655Z,5.47
2018-08-16T22:00:01.473Z,5.20
2018-08-16T22:02:35.510Z,5.63
2018-08-16T22:05:09.740Z,5.37
2018-08-16T22:08:15.186Z,5.70
2018-08-16T22:10:49.695Z,6.00
2018-08-16T22:13:24.476Z,6.27
2018-08-16T22:15:58.366Z,6.77
2018-08-16T22:18:32.270Z,6.37
2018-08-16T22:21:07.453Z,5.13
2018-08-16T22:23:41.430Z,5.77
2018-08-16T22:26:14.530Z,7.27
2018-08-16T22:28:48.027Z,6.03
2018-08-16T22:31:21.325Z,6.40
2018-08-16T22:33:54.658Z,5.77
2018-08-16T22:36:28.127Z,6.23
2018-08-16T22:39:02.905Z,6.50
2018-08-16T22:41:37.333Z,6.30
2018-08-16T22:44:12.334Z,6.00
2018-08-16T22:46:45.477Z,6.43
2018-08-16T22:49:19.613Z,6.33
2018-08-16T22:51:53.371Z,5.83
2018-08-16T22:54:27.814Z,5.73
2018-08-16T22:57:01.637Z,6.27
2018-08-16T22:59:36.666Z,6.00
2018-08-16T23:02:10.342Z,5.27
2018-08-16T23:04:45.198Z,5.37
2018-08-16T23:07:19.061Z,6.57
2018-08-16T23:09:54.094Z,6.87
2018-08-16T23:12:27.467Z,5.97
2018-08-16T23:15:01.973Z,6.60
2018-08-16T23:17:35.202Z,6.33
2018-08-16T23:20:09.806Z,6.23
2018-08-16T23:22:43.729Z,5.93
2018-08-16T23:25:17.659Z,5.57
2018-08-16T23:27:51.304Z,5.73
2018-08-16T23:30:25.346Z,7.27
2018-08-16T23:32:58.452Z,6.00
2018-08-16T23:35:31.956Z,6.50
2018-08-16T23:38:04.788Z,7.73
2018-08-16T23:40:39.235Z,6.13
2018-08-16T23:43:12.376Z,6.63
2018-08-16T23:45:45.633Z,7.50
2018-08-16T23:48:29.213Z,6.67
2018-08-16T23:51:03.357Z,7.47
2018-08-16T23:53:37.069Z,6.50
2018-08-16T23:56:10.778Z,6.80
2018-08-16T23:58:43.930Z,7.20
